Tiempo atmosférico en la estación meteorológica de Calanda, Teruel (459 m.)



Fecha
DESCASC
Temp. máxima en grados centígrados (hora)
DESCASC
Temp. mínima en grados centígrados (hora)
DESCASC
Temp. media en grados centígrados
DESCASC
Racha de viento máxima en m/sg (hora)
DESCASC
Velocidad máxima media en intervalos de 10 minutos(hora)
DESCASC
Precipitaciones diarias en mm
DESCASC
Precipitaciones de 00:00 a 06:00 en mm
DESCASC
Precipitaciones de 06:00 a 12:00 en mm
DESCASC
Precipitaciones de 12:00 a 18:00 en mm
DESCASC
Precipitaciones de 18:00 a 24:00 en mm
DESCASC
24-09-2020 22.4 (17:00) 15.5 (05:10) 18.9 5.28 (20:50) 3.61 (08:20) 1.2 0 0 1.2 0
23-09-2020 27.9 (14:50) 16.6 (00:00) 22.3 8.06 (15:30) 5.28 (08:40) 1.2 0 0 1.2 0
22-09-2020 26.9 (17:20) 14.5 (00:00) 20.7 6.11 (15:00) 3.33 (02:50) 0 0 0 0 0
21-09-2020 24.9 (16:00) 15.7 (00:00) 20.3 7.22 (11:10) 4.44 (18:10) 0 0 0 0 0
20-09-2020 26.2 (14:10) 15.4 (00:00) 20.8 10 (13:10) 5 (11:50) 4.2 0 0 0 4.2
19-09-2020 28.4 (15:50) 16.5 (00:00) 22.4 11.11 (15:50) 5.83 (15:50) 0 0 0 0 0
18-09-2020 26.1 (15:30) 18 (00:00) 22.1 14.17 (02:00) 8.61 (19:20) 0.4 0 0.4 0 0
17-09-2020 30.9 (15:10) 20.5 (00:00) 25.7 12.22 (23:00) 7.22 (23:40) 0 0 0 0 0
16-09-2020 32.9 (17:50) 19.1 (08:10) 26 10.28 (20:20) 5 (20:20) 0 0 0 0 0
15-09-2020 32.4 (15:30) 19.6 (00:00) 26 12.22 (16:50) 7.5 (16:50) 0 0 0 0 0
14-09-2020 34.9 (15:50) 18.7 (00:00) 26.8 13.61 (22:10) 6.67 (18:50) 0 0 0 0 0
13-09-2020 34.2 (17:20) 17.7 (00:00) 26 10.83 (20:40) 6.39 (20:40) 0 0 0 0 0
12-09-2020 31.4 (17:20) 16 (05:30) 23.7 8.89 (22:30) 5 (22:30) 0 0 0 0 0
11-09-2020 30.1 (18:20) 16.2 (00:00) 23.2 6.11 (14:30) 3.89 (09:10) 0 0 0 0 0
10-09-2020 28.9 (17:40) 15.1 (00:00) 22 7.78 (15:50) 4.17 (15:50) 0.8 0.8 0 0 0
09-09-2020 27.2 (16:30) 15.1 (06:40) 21.2 6.11 (17:20) 3.06 (07:00) 0.6 0 0 0 0.6
08-09-2020 26.8 (17:00) 13.1 (00:00) 19.9 6.67 (09:10) 3.89 (04:00) 0 0 0 0 0
07-09-2020 24.5 (17:10) 13.7 (07:50) 19.1 11.67 (10:20) 6.11 (10:10) 0 0 0 0 0
06-09-2020 26.4 (17:40) 16.2 (00:00) 21.3 10.28 (12:50) 5.83 (22:20) 1.2 0 0 0 1.2
05-09-2020 31.5 (17:00) 15.6 (00:00) 23.6 7.78 (00:10) 4.44 (01:00) 0 0 0 0 0
04-09-2020 32.2 (18:20) 16.5 (00:00) 24.4 8.89 (23:50) 5 (21:20) 0 0 0 0 0
03-09-2020 31.4 (17:10) 13.7 (00:00) 22.5 8.89 (21:30) 5 (21:30) 0 0 0 0 0
02-09-2020 26.9 (16:20) 13 (00:00) 19.9 9.44 (16:10) 4.72 (17:00) 0 0 0 0 0
01-09-2020 25.6 (19:10) 13.6 (00:00) 19.6 5.83 (13:40) 3.33 (03:30) 0 0 0 0 0
31-08-2020 26.4 (17:00) 10.8 (00:00) 18.6 7.22 (00:50) 3.61 (00:40) 0 0 0 0 0
30-08-2020 22.7 (16:10) 12.9 (00:00) 17.8 13.89 (01:20) 7.22 (03:00) 0 0 0 0 0
29-08-2020 24.3 (16:50) 16.2 (00:00) 20.3 14.17 (21:20) 8.33 (20:00) 0 0 0 0 0
28-08-2020 30.9 (16:10) 18.6 (00:00) 24.8 11.67 (20:50) 6.39 (20:40) 1.2 0 0 0.6 0.6
27-08-2020 35.2 (18:00) 20.3 (00:00) 27.8 7.5 (22:50) 3.61 (22:50) 0 0 0 0 0
26-08-2020 34.9 (18:30) 19.4 (00:00) 27.2 10.28 (01:00) 5.56 (00:20) 0 0 0 0 0

Gráficas

Temp. máximas Temp. mínimas Temp. medias Precipitaciones Rachas de viento máximas Velocidades máximas media en intervalos de 10 minutos

Datos horarios

Fecha y hora oficial Temperatura (ºC) Velocidad del viento (km/h) Dirección del viento Racha (km/h) Dirección de racha Precipitación (mm) Presión (hPa) Tendencia (hPa) Humedad (%)
2020-09-24 23:00:00 16.8 9 Oeste 15 Oeste 0 959.6 -- 75
2020-09-24 22:00:00 18.2 9 Oeste 17 Sudoeste 0 959.2 -- 68
2020-09-24 21:00:00 19.3 10 Sudoeste 19 Oeste 0 958.7 -- 64
2020-09-24 20:00:00 20.2 10 Sudoeste 17 Sudoeste 0 958.4 -- 62
2020-09-24 19:00:00 21.4 5 Sur 9 Sudoeste 0 958.2 -- 77
2020-09-24 18:00:00 21.1 5 Este 15 Norte 0.2 958.2 -- 79
2020-09-24 17:00:00 21.9 9 Norte 16 Sudoeste 0 958.2 -- 71
2020-09-24 16:00:00 19.7 9 Sudoeste 17 Sudoeste 0.2 958.7 -- 80
2020-09-24 15:00:00 19.9 4 Sudoeste 13 Sudoeste 0.6 959.4 -- 72
2020-09-24 14:00:00 20.6 4 Oeste 9 Oeste 0.2 960 -- 72
2020-09-24 13:00:00 21.5 2 Sudoeste 5 Sur 0 959.8 -- 57
2020-09-24 12:00:00 21.2 2 Este 10 Sur 0 960.2 -- 58
2020-09-24 11:00:00 20.7 5 Sur 12 Sudoeste 0 960.5 -- 58
2020-09-24 10:00:00 18.9 10 Sudoeste 16 Sudoeste 0 960.2 -- 66
2020-09-24 09:00:00 17 11 Sudoeste 19 Sudoeste 0 960.1 -- 74
2020-09-24 08:00:00 17.1 9 Sudoeste 15 Sudoeste 0 960.1 -- 72
2020-09-24 07:00:00 15.6 5 Sudoeste 14 Noroeste 0 960.1 -- 80
2020-09-24 06:00:00 17.7 8 Sudoeste 15 Sudoeste 0 959.8 -- 70
2020-09-24 05:00:00 15.7 2 Sur 9 Sudoeste 0 959.8 -- 83
2020-09-24 04:00:00 17.3 8 Sudoeste 13 Sudoeste 0 960 -- 73
2020-09-24 03:00:00 17.6 5 Sudoeste 12 Sudoeste 0 960 -- 75
2020-09-24 02:00:00 18.7 5 Sudoeste 15 Sudoeste 0 960.2 -- 73
2020-09-24 01:00:00 19.3 9 Sudoeste 14 Sudoeste 0 960.2 -- 72
2020-09-24 00:00:00 19.2 8 Sudoeste 15 Sudoeste 0 960.2 -- 73
2020-09-23 23:00:00 20.4 10 Sudoeste 15 Sur 0 960.1 -- 67
2020-09-23 22:00:00 18.9 9 Sudoeste 14 Sudoeste 0 959.9 -- 82
2020-09-23 21:00:00 19.5 0 Calma 11 Sudoeste 0 959.2 -- 80
2020-09-23 20:00:00 20.1 8 Sudoeste 12 Sudoeste 0 958.9 -- 78
2020-09-23 19:00:00 21.9 5 Sudeste 9 Sur 0 958.5 -- 60
2020-09-23 18:00:00 21.9 5 Este 9 Norte 0.4 958.5 -- 62
2020-09-23 17:00:00 22.7 4 Este 14 Este 0 958.6 -- 54
2020-09-23 16:00:00 21.7 8 Sudeste 29 Noroeste 0.8 958.6 -- 64
2020-09-23 15:00:00 25.9 7 Oeste 17 Noroeste 0 958.4 -- 32
2020-09-23 14:00:00 26.3 4 Sudeste 17 Sudeste 0 958.9 -- 30
2020-09-23 13:00:00 24.8 10 Sudeste 18 Sudeste 0 959.6 -- 34
2020-09-23 12:00:00 23.5 11 Sudeste 16 Sudeste 0 960 -- 37
2020-09-23 11:00:00 21.8 8 Sudoeste 15 Sudoeste 0 960.1 -- 40
2020-09-23 10:00:00 20.1 13 Sudoeste 22 Sudoeste 0 959.9 -- 46
2020-09-23 09:00:00 18.1 14 Sudoeste 27 Sudoeste 0 959.6 -- 52
2020-09-23 08:00:00 16.9 16 Sudoeste 24 Sudoeste 0 959.2 -- 55
2020-09-23 07:00:00 16.9 9 Sudoeste 16 Sudoeste 0 959.1 -- 55
2020-09-23 06:00:00 17.2 10 Sudoeste 26 Sudoeste 0 959.4 -- 52
2020-09-23 05:00:00 17.5 17 Sudoeste 24 Sudoeste 0 959.4 -- 49
2020-09-23 04:00:00 17.5 11 Sudoeste 17 Sudoeste 0 959.7 -- 49
2020-09-23 03:00:00 17.6 6 Sur 18 Sudoeste 0 960.2 -- 51
2020-09-23 02:00:00 19.7 14 Sudoeste 25 Sudoeste 0 960 -- 42
2020-09-23 01:00:00 18.3 8 Sudoeste 15 Sudoeste 0 959.9 -- 64
2020-09-23 00:00:00 19 6 Sur 12 Sudoeste 0 960.1 -- 62
2020-09-22 23:00:00 19.9 8 Sur 18 Sur 0 960.1 -- 57
2020-09-22 22:00:00 20.9 10 Sur 22 Sur 0 959.9 -- 50
2020-09-22 21:00:00 21.5 8 Sur 19 Sur 0 959.5 -- 47
2020-09-22 20:00:00 23.1 3 Noroeste 11 Norte 0 959 -- 39
2020-09-22 19:00:00 24.9 5 Norte 17 Norte 0 958.8 -- 32
2020-09-22 18:00:00 25.1 8 Norte 19 Nordeste 0 958.9 -- 33
2020-09-22 17:00:00 25.2 6 Norte 17 Noroeste 0 959.5 -- 34
2020-09-22 16:00:00 24.5 8 Norte 20 Norte 0 960.3 -- 36
2020-09-22 15:00:00 24.7 5 Nordeste 22 Norte 0 960.7 -- 38
2020-09-22 14:00:00 23.7 8 Norte 19 Norte 0 961.6 -- 41
2020-09-22 13:00:00 22.9 6 Este 17 Nordeste 0 962.3 -- 44
2020-09-22 12:00:00 21.6 3 Norte 12 Norte 0 962.8 -- 47
2020-09-22 11:00:00 20.1 3 Nordeste 15 Sudoeste 0 962.7 -- 52
2020-09-22 10:00:00 17.2 9 Sudoeste 15 Sudoeste 0 962.8 -- 62
2020-09-22 09:00:00 14.8 7 Sudoeste 16 Sudoeste 0 962.9 -- 76
2020-09-22 08:00:00 14.5 10 Sudoeste 15 Sudoeste 0 962.6 -- 78
2020-09-22 07:00:00 15.1 11 Sudoeste 16 Sudoeste 0 962.5 -- 75
2020-09-22 06:00:00 15.2 8 Sudoeste 19 Sudoeste 0 962.6 -- 73
2020-09-22 05:00:00 16.6 11 Sudoeste 19 Sudoeste 0 962.7 -- 66
2020-09-22 04:00:00 17.1 10 Sudoeste 17 Sudoeste 0 963.2 -- 64
2020-09-22 03:00:00 17 10 Sudoeste 20 Sudoeste 0 963.6 -- 65
2020-09-22 02:00:00 17.6 8 Sudoeste 17 Sudoeste 0 963.6 -- 63
2020-09-22 01:00:00 17.3 10 Sudoeste 16 Sudoeste 0 963.6 -- 65
2020-09-22 00:00:00 17.8 9 Sudoeste 13 Sudoeste 0 963.6 -- 63
2020-09-21 23:00:00 18 6 Sudoeste 12 Oeste 0 963.6 -- 63
2020-09-21 22:00:00 18.6 3 Sudoeste 9 Oeste 0 963.5 -- 60
2020-09-21 21:00:00 19.9 5 Noroeste 10 Norte 0 963 -- 55
2020-09-21 20:00:00 22.6 7 Norte 21 Norte 0 962.7 -- 43
2020-09-21 19:00:00 23.6 13 Norte 24 Noroeste 0 962.2 -- 40
2020-09-21 18:00:00 24.4 14 Noroeste 23 Norte 0 962.3 -- 39
2020-09-21 17:00:00 24.2 4 Norte 22 Norte 0 962.5 -- 41
2020-09-21 16:00:00 24.3 9 Noroeste 20 Norte 0 962.9 -- 42
2020-09-21 15:00:00 23.8 3 Noroeste 21 Noroeste 0 963.3 -- 45
2020-09-21 14:00:00 23.3 7 Norte 22 Norte 0 963.7 -- 47
2020-09-21 13:00:00 22.2 12 Norte 19 Norte 0 964.2 -- 57
2020-09-21 12:00:00 21 11 Norte 26 Oeste 0 964.6 -- 64
2020-09-21 11:00:00 21.4 15 Oeste 24 Oeste 0 964.3 -- 58
2020-09-21 10:00:00 19.5 4 Sudoeste 10 Sudoeste 0 964.2 -- 70
2020-09-21 09:00:00 17.3 4 Sur 14 Sudoeste 0 964.1 -- 83
2020-09-21 08:00:00 16.5 11 Sudoeste 16 Sudoeste 0 963.7 -- 84
2020-09-21 07:00:00 16.4 8 Sudoeste 14 Sudoeste 0 963.2 -- 85
2020-09-21 06:00:00 16 8 Sudoeste 12 Sudoeste 0 963.3 -- 88
2020-09-21 05:00:00 16.3 5 Oeste 17 Sudoeste 0 963.4 -- 89
2020-09-21 04:00:00 17.3 12 Sudoeste 18 Sudoeste 0 963.3 -- 83
2020-09-21 03:00:00 17.5 8 Oeste 17 Sudoeste 0 963.8 -- 88
2020-09-21 02:00:00 17.8 10 Sudoeste 16 Sudoeste 0 963.9 -- 88
2020-09-21 01:00:00 17.5 10 Sudoeste 14 Sudoeste 0 963.8 -- 91
2020-09-21 00:00:00 17.7 7 Sur 15 Sudoeste 0.6 963.9 -- 92
2020-09-20 23:00:00 18.2 10 Oeste 19 Oeste 1 964.3 -- 89
2020-09-20 22:00:00 18.6 5 Sudoeste 10 Oeste 0 963.5 -- 90
2020-09-20 21:00:00 18.3 4 Sudoeste 30 Noroeste 2.6 963 -- 89
2020-09-20 20:00:00 22.4 0 Calma 10 Norte 0 962.2 -- 48
2020-09-20 19:00:00 23.5 8 Norte 16 Norte 0 961.8 -- 44
2020-09-20 18:00:00 24.6 12 Este 17 Este 0 961.6 -- 39
2020-09-20 17:00:00 25.2 8 Nordeste 21 Norte 0 961.5 -- 36
2020-09-20 16:00:00 24.9 14 Norte 26 Norte 0 962 -- 37
2020-09-20 15:00:00 24.9 9 Nordeste 27 Noroeste 0 962.3 -- 37
2020-09-20 14:00:00 25.1 12 Norte 36 Oeste 0 962.8 -- 36
2020-09-20 13:00:00 25.4 18 Oeste 33 Oeste 0 963.2 -- 34
2020-09-20 12:00:00 24 16 Oeste 28 Sudoeste 0 963.5 -- 40
2020-09-20 11:00:00 22.2 12 Oeste 25 Oeste 0 963.7 -- 47
2020-09-20 10:00:00 21 11 Oeste 19 Oeste 0 963.6 -- 50
2020-09-20 09:00:00 19 9 Sudoeste 13 Sudoeste 0 963.6 -- 54
2020-09-20 08:00:00 16.9 8 Sudoeste 10 Sudoeste 0 963.2 -- 61
2020-09-20 07:00:00 16.5 6 Sudoeste 11 Sudoeste 0 963.3 -- 62
2020-09-20 06:00:00 17.4 7 Sudoeste 14 Oeste 0 963.3 -- 59
2020-09-20 05:00:00 17.4 4 Oeste 11 Sudoeste 0 963.3 -- 56
2020-09-20 04:00:00 18.7 6 Sur 15 Sudoeste 0 963.3 -- 52
2020-09-20 03:00:00 18.8 6 Noroeste 10 Sudoeste 0 963.2 -- 49
2020-09-20 02:00:00 18.6 0 Calma 21 Oeste 0 963.2 -- 47
2020-09-20 01:00:00 19.8 12 Oeste 27 Sudoeste 0 963 -- 43
2020-09-20 00:00:00 20.7 16 Sudoeste 30 Sudoeste 0 963 -- 42
2020-09-19 23:00:00 21.5 12 Oeste 29 Oeste 0 962.9 -- 41
2020-09-19 22:00:00 22 8 Oeste 15 Oeste 0 962.2 -- 41
2020-09-19 21:00:00 23.1 10 Noroeste 23 Oeste 0 961.2 -- 37
2020-09-19 20:00:00 24.2 13 Oeste 32 Noroeste 0 960.5 -- 34
2020-09-19 19:00:00 25.8 13 Noroeste 32 Oeste 0 960 -- 26
2020-09-19 18:00:00 26.6 18 Noroeste 32 Noroeste 0 959.6 -- 24
2020-09-19 17:00:00 27.3 19 Oeste 34 Oeste 0 959.7 -- 24
2020-09-19 16:00:00 27.9 20 Oeste 40 Oeste 0 959.8 -- 25
2020-09-19 15:00:00 27.7 15 Oeste 28 Oeste 0 960.3 -- 26
2020-09-19 14:00:00 27.4 8 Oeste 35 Oeste 0 961.1 -- 26
2020-09-19 13:00:00 25.5 18 Oeste 30 Oeste 0 961.5 -- 29
2020-09-19 12:00:00 24.9 10 Oeste 22 Oeste 0 961.8 -- 31
2020-09-19 11:00:00 23.6 3 Nordeste 12 Este 0 962 -- 40
2020-09-19 10:00:00 22.3 6 Sudeste 10 Este 0 961.5 -- 47
2020-09-19 09:00:00 18 3 Sudoeste 8 Sur 0 961.4 -- 60
2020-09-19 08:00:00 16.8 7 Norte 18 Sudoeste 0 960.9 -- 62
2020-09-19 07:00:00 18.2 8 Sur 14 Sudoeste 0 961 -- 58
2020-09-19 06:00:00 18.5 6 Noroeste 22 Sudeste 0 960.8 -- 57
2020-09-19 05:00:00 19.7 6 Nordeste 19 Sudoeste 0 960.9 -- 52
2020-09-19 04:00:00 19.1 6 Sudeste 23 Sur 0 961.2 -- 56
2020-09-19 03:00:00 19.7 8 Sur 21 Sur 0 961.6 -- 54
2020-09-19 02:00:00 19.6 8 Sur 24 Sudeste 0 962 -- 54
2020-09-19 01:00:00 20 11 Sur 23 Sur 0 962.5 -- 54
2020-09-19 00:00:00 18.4 4 Sur 15 Sudoeste 0 962.3 -- 69
2020-09-18 23:00:00 20.6 8 Sudoeste 27 Sur 0 962.3 -- 58
2020-09-18 22:00:00 21.4 11 Sur 38 Sur 0 962 -- 57
2020-09-18 21:00:00 21.7 17 Sur 45 Sudeste 0 961.4 -- 55
2020-09-18 20:00:00 22.1 24 Sudeste 47 Sudeste 0 960.4 -- 52
2020-09-18 19:00:00 23.4 26 Sudeste 51 Sudeste 0 960.2 -- 48
2020-09-18 18:00:00 23.9 27 Sudeste 51 Sur 0 959.9 -- 48
2020-09-18 17:00:00 24.5 24 Sudeste 49 Sur 0 960.1 -- 45
2020-09-18 16:00:00 24.8 27 Sudeste 46 Sudeste 0 961 -- 44
2020-09-18 15:00:00 25.8 15 Sur 45 Sudeste 0 961.2 -- 40
2020-09-18 14:00:00 25.4 19 Sudeste 43 Sur 0 961.5 -- 41
2020-09-18 13:00:00 24.7 14 Sudeste 36 Sur 0 962.1 -- 42
2020-09-18 12:00:00 22.6 18 Sudeste 31 Sudeste 0 962.5 -- 48
2020-09-18 11:00:00 20.4 6 Sudeste 14 Este 0.4 962.7 -- 78
2020-09-18 10:00:00 22.3 8 Sudeste 27 Sudeste 0 962.1 -- 54
2020-09-18 09:00:00 22.9 20 Sudeste 36 Sudeste 0 961.1 -- 50
2020-09-18 08:00:00 22.5 16 Sudeste 33 Sur 0 960.5 -- 56
2020-09-18 07:00:00 22.7 22 Sur 37 Sudeste 0 960.6 -- 50
2020-09-18 06:00:00 22.8 22 Sudeste 35 Sur 0 960.2 -- 46
2020-09-18 05:00:00 23.2 19 Sur 46 Sur 0 960.2 -- 37
2020-09-18 04:00:00 23.5 14 Sur 42 Sudeste 0 960.6 -- 33
2020-09-18 03:00:00 23.9 23 Sur 45 Sur 0 960.4 -- 33
2020-09-18 02:00:00 23.9 26 Sur 51 Sur 0 960.3 -- 33
2020-09-18 01:00:00 24.1 22 Sur 46 Sur 0 961.4 -- 34
2020-09-18 00:00:00 24 23 Sur 44 Sur 0 961.7 -- 33
2020-09-17 23:00:00 24.1 23 Sur 44 Sur 0 961.5 -- 35
2020-09-17 22:00:00 24.3 23 Sur 42 Sur 0 961.2 -- 39
2020-09-17 21:00:00 25.5 16 Sur 39 Sudeste 0 960.8 -- 39
2020-09-17 20:00:00 27.1 17 Sur 29 Sur 0 960.6 -- 30
2020-09-17 19:00:00 29.2 14 Sudeste -- -- 0 960.5 -- 25
2020-09-17 18:00:00 29.5 14 Sudeste 33 Sur 0 960.7 -- 22
2020-09-17 17:00:00 29 19 Sudeste 37 Sudeste 0 960.9 -- 23
2020-09-17 16:00:00 29.9 14 Sudeste 31 Sur 0 961.1 -- 23
2020-09-17 15:00:00 30.6 15 Sudeste 31 Sur 0 961.6 -- 17
2020-09-17 14:00:00 28.7 11 Sudeste 23 Sudeste 0 962.4 -- 24
2020-09-17 13:00:00 26.9 11 Sudeste 21 Sur 0 962.9 -- 26
2020-09-17 12:00:00 26.1 11 Sudeste 27 Sudeste 0 963.2 -- 30
2020-09-17 11:00:00 24.6 17 Sudeste 31 Sur 0 963.1 -- 31
2020-09-17 10:00:00 23 6 Norte 11 Sudoeste 0 963.3 -- 37
2020-09-17 09:00:00 22.2 5 Sur 13 Sudeste 0 963.1 -- 40
2020-09-17 08:00:00 21.9 8 Este 14 Este 0 963 -- 42
2020-09-17 07:00:00 21.1 6 Norte 9 Sur 0 962.9 -- 47
2020-09-17 06:00:00 22 7 Sur 15 Sudeste 0 963.1 -- 44
2020-09-17 05:00:00 21.1 2 Noroeste 5 Norte 0 963.3 -- 48
2020-09-17 04:00:00 21.3 3 Noroeste 15 Sur 0 963.4 -- 48
2020-09-17 03:00:00 23.6 7 Sur 19 Sudeste 0 963.6 -- 40
2020-09-17 02:00:00 24.1 6 Sudeste 23 Sur 0 963.7 -- 39
2020-09-17 01:00:00 25 10 Sur 24 Sur 0 963.9 -- 37
2020-09-17 00:00:00 25.4 11 Sur 23 Sur 0 964 -- 37
2020-09-16 23:00:00 26.1 12 Sur 28 Sur 0 963.9 -- 35
2020-09-16 22:00:00 26.5 13 Sur 24 Sur 0 963.9 -- 39
2020-09-16 21:00:00 27.2 12 Sur 37 Sur 0 963.3 -- 40
2020-09-16 20:00:00 28.4 14 Sur 26 Sur 0 963.1 -- 37
2020-09-16 19:00:00 29.8 11 Sur 23 Sur 0 963 -- 33
2020-09-16 18:00:00 31.6 13 Sudeste 28 Sudeste 0 963 -- 25
2020-09-16 17:00:00 31.6 6 Nordeste 17 Norte 0 963.3 -- 22
2020-09-16 16:00:00 31.3 6 Nordeste 19 Nordeste 0 963.9 -- 25
2020-09-16 15:00:00 32.5 6 Este 18 Este 0 964.6 -- 25
2020-09-16 14:00:00 29.8 9 Norte 18 Norte 0 965.4 -- 31
2020-09-16 13:00:00 29.6 4 Este 14 Nordeste 0 966 -- 31
2020-09-16 12:00:00 28.4 4 Nordeste 13 Norte 0 966.5 -- 34
2020-09-16 11:00:00 26 3 Este 9 Sudeste 0 966.8 -- 40
2020-09-16 10:00:00 22.4 3 Sur 10 Sudoeste 0 967 -- 50
2020-09-16 09:00:00 20.5 5 Oeste 18 Sudoeste 0 966.7 -- 56
2020-09-16 08:00:00 19.2 12 Sudoeste 18 Sudoeste 0 966.3 -- 60
2020-09-16 07:00:00 19.6 14 Sudoeste 19 Sudoeste 0 966 -- 58
2020-09-16 06:00:00 20.1 12 Sudoeste 15 Sudoeste 0 966.2 -- 57
2020-09-16 05:00:00 20.5 10 Sudoeste 14 Sudoeste 0 966.2 -- 56
2020-09-16 04:00:00 20.1 4 Sudoeste 10 Sudoeste 0 966.4 -- 58
2020-09-16 03:00:00 20.4 3 Sudoeste 13 Norte 0 966.4 -- 57
2020-09-16 02:00:00 22.6 7 Oeste 24 Sur 0 966.5 -- 50
2020-09-16 01:00:00 23.3 6 Sur 26 Sur 0 966.3 -- 49
2020-09-16 00:00:00 23.8 11 Sur 22 Sur 0 966.5 -- 46
2020-09-15 23:00:00 24.3 10 Sudoeste 24 Sudoeste 0 966.5 -- 44
2020-09-15 22:00:00 24.8 14 Sudoeste 31 Sur 0 966.3 -- 43
2020-09-15 21:00:00 25.5 15 Sur 32 Sur 0 965.8 -- 45
2020-09-15 20:00:00 26.4 14 Sur 33 Sudeste 0 965.7 -- 40
2020-09-15 19:00:00 27.9 12 Sur 36 Sur 0 965.6 -- 32
2020-09-15 18:00:00 28.8 18 Sudeste 32 Sudeste 0 965.3 -- 34
2020-09-15 17:00:00 29.7 21 Sudeste 44 Sudeste 0 965.6 -- 30
2020-09-15 16:00:00 31.7 9 Norte 22 Norte 0 965.9 -- 22
2020-09-15 15:00:00 31.4 6 Nordeste 15 Norte 0 966.6 -- 23
2020-09-15 14:00:00 30.4 5 Este 14 Nordeste 0 967.5 -- 24
2020-09-15 13:00:00 28.4 6 Nordeste 13 Nordeste 0 968.1 -- 28
2020-09-15 12:00:00 29 5 Este 11 Sudeste 0 968.9 -- 27
2020-09-15 11:00:00 26.4 5 Sur 12 Sudoeste 0 969.1 -- 32
2020-09-15 10:00:00 23.2 9 Sudoeste 17 Sudoeste 0 968.7 -- 42
2020-09-15 09:00:00 20.1 7 Sur 13 Sudoeste 0 968.4 -- 53
2020-09-15 08:00:00 20.5 8 Oeste 12 Sudoeste 0 968.2 -- 52
2020-09-15 07:00:00 21.6 6 Sudoeste 12 Oeste 0 967.9 -- 49
2020-09-15 06:00:00 22.5 5 Noroeste 12 Oeste 0 967.6 -- 45
2020-09-15 05:00:00 23.5 5 Nordeste 17 Norte 0 967.2 -- 41
2020-09-15 04:00:00 24.8 8 Oeste 21 Sur 0 968.2 -- 34
2020-09-15 03:00:00 23.9 11 Sur 30 Sur 0 968.1 -- 35
2020-09-15 02:00:00 23.8 16 Sur 32 Sur 0 967.8 -- 38
2020-09-15 01:00:00 23.7 17 Sur 35 Sur 0 967.6 -- 43
2020-09-15 00:00:00 24.1 18 Sur 37 Sur 0 967.5 -- 42
2020-09-14 23:00:00 24.8 20 Sur 49 Sudeste 0 967.4 -- 42
2020-09-14 22:00:00 25.4 20 Sur 37 Sur 0 967.2 -- 39
2020-09-14 21:00:00 26.2 18 Sudeste 40 Sudeste 0 966.7 -- 34
2020-09-14 20:00:00 27.4 17 Sudeste 37 Sur 0 966.5 -- 29
2020-09-14 19:00:00 28.1 21 Sudeste 44 Sudeste 0 966.6 -- 27
2020-09-14 18:00:00 29.7 21 Sudeste 39 Sudeste 0 966.9 -- 26
2020-09-14 17:00:00 31 20 Sudeste 33 Sudeste 0 966.8 -- 24
2020-09-14 16:00:00 33.1 13 Sudeste 26 Sudeste 0 967.3 -- 15
2020-09-14 15:00:00 33 10 Sudeste 22 Sudeste 0 968.1 -- 15
2020-09-14 14:00:00 32.4 7 Este 24 Este 0 968.6 -- 21
2020-09-14 13:00:00 31.7 12 Sudeste 19 Sudeste 0 969.1 -- 19
2020-09-14 12:00:00 29.2 7 Sur 18 Sur 0 969.6 -- 25
2020-09-14 11:00:00 26.6 12 Sur 22 Sur 0 969.9 -- 30
2020-09-14 10:00:00 23.4 8 Sudoeste 15 Sudoeste 0 969.9 -- 34
2020-09-14 09:00:00 20.9 9 Sudeste 21 Sudeste 0 969.8 -- 39
2020-09-14 08:00:00 19.4 8 Sur 13 Sudeste 0 969.5 -- 42
2020-09-14 07:00:00 19.4 7 Sur 14 Sudoeste 0 969.2 -- 43
2020-09-14 06:00:00 18.8 6 Oeste 13 Sudoeste 0 969.1 -- 46
2020-09-14 05:00:00 19 3 Oeste 18 Sur 0 969.2 -- 46
2020-09-14 04:00:00 22 6 Sur 24 Sur 0 969.3 -- 39
2020-09-14 03:00:00 23.5 8 Sur 39 Sur 0 969.4 -- 36
2020-09-14 02:00:00 24.3 18 Sur 38 Sur 0 969.1 -- 33
2020-09-14 01:00:00 24.9 17 Sur 37 Sur 0 969.3 -- 32
2020-09-14 00:00:00 25.2 19 Sur 37 Sur 0 969.3 -- 32
2020-09-13 23:00:00 25.6 16 Sur 32 Sudeste 0 969.4 -- 32
2020-09-13 22:00:00 26 18 Sur 32 Sur 0 969.2 -- 32
2020-09-13 21:00:00 27.2 21 Sur 39 Sudeste 0 968.5 -- 29
2020-09-13 20:00:00 28.6 21 Sudeste 37 Sur 0 968.2 -- 26
2020-09-13 19:00:00 30.5 22 Sudeste 33 Sudeste 0 967.9 -- 23
2020-09-13 18:00:00 32.3 16 Este 28 Este 0 967.6 -- 21
2020-09-13 17:00:00 33.9 9 Nordeste 25 Norte 0 967.7 -- 17
2020-09-13 16:00:00 32.7 10 Norte 26 Norte 0 968.3 -- 18
2020-09-13 15:00:00 31.9 10 Norte 20 Norte 0 968.7 -- 21
2020-09-13 14:00:00 30.9 8 Nordeste 18 Nordeste 0 969.4 -- 24
2020-09-13 13:00:00 29.3 5 Nordeste 18 Nordeste 0 969.9 -- 25
2020-09-13 12:00:00 28.4 3 Sudeste 10 Sur 0 970.4 -- 24
2020-09-13 11:00:00 26 7 Sur 12 Sur 0 970.3 -- 27
2020-09-13 10:00:00 22 6 Sur 15 Sudoeste 0 970.1 -- 40
2020-09-13 09:00:00 18.8 12 Sudoeste 18 Sudoeste 0 969.7 -- 48
2020-09-13 08:00:00 17.9 12 Sudoeste 18 Sudoeste 0 969.2 -- 50
2020-09-13 07:00:00 18.3 10 Sudoeste 16 Sudoeste 0 968.6 -- 50
2020-09-13 06:00:00 19.2 9 Sudoeste 16 Sudoeste 0 968.2 -- 49
2020-09-13 05:00:00 20.1 12 Sudoeste 16 Sudoeste 0 968.2 -- 48
2020-09-13 04:00:00 20.4 10 Oeste 19 Sudoeste 0 968.3 -- 48
2020-09-13 03:00:00 21.4 14 Sudoeste 22 Sudoeste 0 967.9 -- 46
2020-09-13 02:00:00 22.9 14 Sur 25 Sur 0 968 -- 41
2020-09-13 01:00:00 23.9 15 Sur 27 Sur 0 967.9 -- 38
2020-09-13 00:00:00 24.7 13 Sur 31 Sudeste 0 967.7 -- 36
2020-09-12 23:00:00 24.9 15 Sur 32 Sur 0 967.4 -- 38
2020-09-12 22:00:00 25.6 15 Sur 23 Sudeste 0 966.7 -- 40
2020-09-12 21:00:00 26.8 13 Sur 26 Sur 0 965.8 -- 35
2020-09-12 20:00:00 28.6 9 Sur 18 Norte 0 965.3 -- 31
2020-09-12 19:00:00 30.2 11 Norte 21 Norte 0 964.8 -- 24
2020-09-12 18:00:00 30.6 10 Norte 21 Norte 0 964.6 -- 24
2020-09-12 17:00:00 30.7 8 Norte 16 Norte 0 964.8 -- 24
2020-09-12 16:00:00 29.9 8 Norte 19 Noroeste 0 965 -- 25
2020-09-12 15:00:00 28.8 8 Norte 21 Norte 0 965.7 -- 29
2020-09-12 14:00:00 28 8 Norte 15 Norte 0 966.1 -- 32
2020-09-12 13:00:00 27.1 5 Nordeste 14 Noroeste 0 966.4 -- 35
2020-09-12 12:00:00 24.9 6 Norte 14 Noroeste 0 966.6 -- 43
2020-09-12 11:00:00 24 5 Noroeste 13 Sudoeste 0 966.6 -- 46
2020-09-12 10:00:00 20.3 9 Sudoeste 17 Sudoeste 0 966.2 -- 47
2020-09-12 09:00:00 18.3 11 Sudoeste 19 Sudoeste 0 965.8 -- 52
2020-09-12 08:00:00 16.7 14 Sudoeste 20 Sudoeste 0 964.9 -- 57
2020-09-12 07:00:00 17.1 12 Sudoeste 18 Sudoeste 0 964.4 -- 54
2020-09-12 06:00:00 17.2 6 Sudoeste 15 Sudoeste 0 964.4 -- 53
2020-09-12 05:00:00 17.2 4 Oeste 12 Sudoeste 0 964.1 -- 54
2020-09-12 04:00:00 18 6 Sudoeste 17 Sur 0 963.7 -- 52
2020-09-12 03:00:00 19.8 10 Sudoeste 16 Sudoeste 0 963.5 -- 47
2020-09-12 02:00:00 21 5 Sudoeste 15 Sudoeste 0 963.3 -- 43
2020-09-12 01:00:00 21.4 6 Sudoeste 12 Oeste 0 963 -- 43
2020-09-12 00:00:00 22.3 9 Sudoeste 16 Sur 0 962.8 -- 40
2020-09-11 23:00:00 22.6 6 Sur 12 Sudoeste 0 962.4 -- 40
2020-09-11 22:00:00 23.4 8 Sur 12 Sur 0 962 -- 31
2020-09-11 21:00:00 23.2 4 Oeste 8 Oeste 0 961.2 -- 33
2020-09-11 20:00:00 27.9 2 Norte 12 Nordeste 0 961 -- 24
2020-09-11 19:00:00 29.4 5 Nordeste 16 Nordeste 0 960.9 -- 21
2020-09-11 18:00:00 29.3 8 Norte 18 Norte 0 960.9 -- 23
2020-09-11 17:00:00 29.2 8 Norte 18 Norte 0 961.2 -- 24
2020-09-11 16:00:00 28.6 10 Norte 21 Norte 0 961.6 -- 27
2020-09-11 15:00:00 27.8 9 Norte 22 Norte 0 961.9 -- 29
2020-09-11 14:00:00 27 5 Norte 19 Noroeste 0 962.5 -- 30
2020-09-11 13:00:00 25.7 9 Noroeste 21 Norte 0 963 -- 31
2020-09-11 12:00:00 24.6 5 Nordeste 17 Noroeste 0 963.3 -- 33
2020-09-11 11:00:00 22.7 9 Noroeste 17 Noroeste 0 963.6 -- 43
2020-09-11 10:00:00 20.2 12 Sudoeste 20 Sudoeste 0 963.5 -- 46
2020-09-11 09:00:00 17.9 12 Sudoeste 19 Sudoeste 0 963.5 -- 51
2020-09-11 08:00:00 16.2 10 Sudoeste 14 Sudoeste 0 963.2 -- 58
2020-09-11 07:00:00 17 9 Sudoeste 13 Sudoeste 0 963 -- 55
2020-09-11 06:00:00 17.3 8 Sudoeste 13 Sudoeste 0 962.8 -- 53
2020-09-11 05:00:00 17.7 9 Sudoeste 12 Sudoeste 0 963 -- 51
2020-09-11 04:00:00 19.2 8 Sudoeste 16 Sudoeste 0 963.1 -- 46
2020-09-11 03:00:00 19.5 9 Sudoeste 18 Sudoeste 0 963.3 -- 44
2020-09-11 02:00:00 19.7 7 Sudoeste 18 Sudoeste 0 963.5 -- 40
2020-09-11 01:00:00 20.2 7 Sudoeste 14 Oeste 0 963.9 -- 35
2020-09-11 00:00:00 22.2 7 Sudoeste 20 Sudoeste 0 963.9 -- 30
2020-09-10 23:00:00 22.2 10 Sudoeste 15 Sudoeste 0 963.5 -- 33
2020-09-10 22:00:00 24.7 8 Noroeste 23 Noroeste 0 963.2 -- 30
2020-09-10 21:00:00 24.8 5 Sudoeste 6 Sudoeste 0 962.4 -- 33
2020-09-10 20:00:00 27.4 3 Nordeste 14 Norte 0 962.3 -- 26
2020-09-10 19:00:00 28.7 7 Norte 23 Norte 0 962.4 -- 22
2020-09-10 18:00:00 28.5 9 Norte 23 Norte 0 962.6 -- 24
2020-09-10 17:00:00 28.4 11 Norte 27 Norte 0 963.2 -- 25
2020-09-10 16:00:00 27.9 10 Norte 28 Norte 0 963.7 -- 27
2020-09-10 15:00:00 28.3 5 Norte 20 Noroeste 0 964.4 -- 27
2020-09-10 14:00:00 26.3 7 Noroeste 17 Norte 0 965 -- 32
2020-09-10 13:00:00 24.6 6 Oeste 21 Noroeste 0 966 -- 35
2020-09-10 12:00:00 23.4 13 Noroeste 24 Oeste 0 966.7 -- 38
2020-09-10 11:00:00 21.5 12 Noroeste 20 Oeste 0 966.8 -- 45
2020-09-10 10:00:00 18.9 12 Sudoeste 20 Sudoeste 0 966.6 -- 65
2020-09-10 09:00:00 16.7 9 Sudoeste 16 Sudoeste 0 966.5 -- 79
2020-09-10 08:00:00 16 8 Sudoeste 12 Sudoeste 0 966.5 -- 83
2020-09-10 07:00:00 15.7 9 Sudoeste 14 Sudoeste 0 966.3 -- 85
2020-09-10 06:00:00 15.1 3 Oeste 10 Noroeste 0 966.6 -- 92
2020-09-10 05:00:00 16 3 Sudoeste 6 Sur 0 966.6 -- 90
2020-09-10 04:00:00 16.6 2 Noroeste 12 Sudoeste 0 966.5 -- 89
2020-09-10 03:00:00 17.6 9 Sudoeste 13 Sudoeste 0 966.5 -- 85
2020-09-10 02:00:00 17.9 3 Sudoeste 15 Sudoeste 0.2 966.7 -- 82
2020-09-10 01:00:00 18 8 Sudoeste 12 Sudoeste 0.6 967.1 -- 85
2020-09-10 00:00:00 18.5 4 Oeste 11 Oeste 0.4 967.8 -- 86
2020-09-09 23:00:00 20.3 3 Noroeste 8 Norte 0 967.4 -- 65
2020-09-09 22:00:00 20.8 3 Nordeste 10 Nordeste 0 966.8 -- 63
2020-09-09 21:00:00 21.2 2 Nordeste 9 Sudeste 0.2 965.9 -- 64
2020-09-09 20:00:00 22.4 5 Este 18 Este 0 965.8 -- 52
2020-09-09 19:00:00 25.5 9 Este 19 Norte 0 965.6 -- 34
2020-09-09 18:00:00 25.5 8 Nordeste 22 Nordeste 0 965.8 -- 32
2020-09-09 17:00:00 26.8 5 Oeste 17 Noroeste 0 966.1 -- 30
2020-09-09 16:00:00 25.6 4 Sudoeste 16 Sur 0 966.7 -- 32
2020-09-09 15:00:00 24.5 6 Sudeste 13 Sudeste 0 967.4 -- 38
2020-09-09 14:00:00 22.6 6 Norte 18 Noroeste 0 968 -- 43
2020-09-09 13:00:00 21.8 5 Sur 10 Sur 0 968.6 -- 46
2020-09-09 12:00:00 19.5 4 Sudeste 13 Sudoeste 0 969.3 -- 60
2020-09-09 11:00:00 18.3 7 Sudoeste 11 Sudoeste 0 969.3 -- 54
2020-09-09 10:00:00 17.5 5 Oeste 13 Sudoeste 0 969.1 -- 62
2020-09-09 09:00:00 15.9 7 Sudoeste 14 Sudoeste 0 968.9 -- 76
2020-09-09 08:00:00 16.5 4 Sur 11 Sudoeste 0 968.6 -- 56
2020-09-09 07:00:00 16 11 Sudoeste 15 Sudoeste 0 968 -- 57
2020-09-09 06:00:00 16.1 9 Sudoeste 14 Sudoeste 0 967.8 -- 56
2020-09-09 05:00:00 16.7 8 Sudoeste 12 Sudoeste 0 968.1 -- 56
2020-09-09 04:00:00 17 7 Sur 10 Sudoeste 0 968.2 -- 49
2020-09-09 03:00:00 18.3 3 Oeste 10 Sudoeste 0 968.3 -- 46
2020-09-09 02:00:00 19.3 4 Sudoeste 10 Oeste 0 969.1 -- 42
2020-09-09 01:00:00 19.7 3 Oeste 6 Nordeste 0 969.3 -- 42
2020-09-09 00:00:00 20.1 5 Sur 11 Sudoeste 0 969.4 -- 40
2020-09-08 23:00:00 20.4 4 Sudeste 9 Sudeste 0 969.3 -- 38
2020-09-08 22:00:00 20 6 Este 10 Este 0 969 -- 36
2020-09-08 21:00:00 22.6 5 Norte 11 Norte 0 968.5 -- 28
2020-09-08 20:00:00 23.9 8 Norte 18 Noroeste 0 968.2 -- 26
2020-09-08 19:00:00 24.7 9 Norte 21 Noroeste 0 968.2 -- 25
2020-09-08 18:00:00 25.2 8 Norte 21 Norte 0 968.4 -- 24
2020-09-08 17:00:00 26.8 7 Nordeste 19 Norte 0 968.7 -- 22
2020-09-08 16:00:00 24.7 7 Este 21 Nordeste 0 968.9 -- 25
2020-09-08 15:00:00 24 8 Noroeste 16 Norte 0 969.4 -- 27
2020-09-08 14:00:00 23.2 4 Nordeste 14 Noroeste 0 970.1 -- 30
2020-09-08 13:00:00 21.2 8 Norte 19 Norte 0 970.7 -- 36
2020-09-08 12:00:00 20 6 Nordeste 20 Norte 0 971.2 -- 40
2020-09-08 11:00:00 18 11 Noroeste 22 Noroeste 0 971.3 -- 46
2020-09-08 10:00:00 16.4 9 Oeste 24 Oeste 0 971 -- 51
2020-09-08 09:00:00 14.3 10 Sudoeste 19 Sudoeste 0 971 -- 56
2020-09-08 08:00:00 13.3 12 Sudoeste 17 Oeste 0 970.4 -- 60
2020-09-08 07:00:00 13.6 10 Sudoeste 22 Sudoeste 0 970 -- 58
2020-09-08 06:00:00 13.6 12 Sudoeste 20 Oeste 0 969.4 -- 58
2020-09-08 05:00:00 14.1 13 Sudoeste 22 Oeste 0 969.5 -- 56
2020-09-08 04:00:00 14.5 14 Sudoeste 22 Sudoeste 0 969.5 -- 55
2020-09-08 03:00:00 14.3 10 Sudoeste 18 Sudoeste 0 969.7 -- 55
2020-09-08 02:00:00 15.1 12 Sudoeste 18 Sudoeste 0 969.5 -- 51
2020-09-08 01:00:00 15.2 3 Oeste 14 Oeste 0 969.5 -- 49
2020-09-08 00:00:00 16 9 Oeste 16 Oeste 0 968.9 -- 43
2020-09-07 23:00:00 16.9 8 Oeste 19 Noroeste 0 968.6 -- 40
2020-09-07 22:00:00 18.4 8 Oeste 21 Noroeste 0 968 -- 33
2020-09-07 21:00:00 20 9 Noroeste 22 Noroeste 0 966.7 -- 29
2020-09-07 20:00:00 22.1 15 Noroeste 30 Noroeste 0 966 -- 24
2020-09-07 19:00:00 23.6 15 Oeste 31 Norte 0 965.5 -- 24
2020-09-07 18:00:00 23.9 14 Noroeste 29 Noroeste 0 965.1 -- 26
2020-09-07 17:00:00 24 14 Norte 28 Norte 0 965.4 -- 26
2020-09-07 16:00:00 23.5 16 Noroeste 34 Norte 0 965.7 -- 27
2020-09-07 15:00:00 22.7 15 Noroeste 31 Noroeste 0 965.9 -- 29
2020-09-07 14:00:00 22.2 13 Noroeste 29 Noroeste 0 966.1 -- 31
2020-09-07 13:00:00 20.7 13 Noroeste 32 Noroeste 0 966.5 -- 35
2020-09-07 12:00:00 18.4 18 Noroeste 37 Noroeste 0 967 -- 40
2020-09-07 11:00:00 17.8 22 Oeste 42 Oeste 0 966.5 -- 44
2020-09-07 10:00:00 16.4 20 Noroeste 32 Noroeste 0 966.9 -- 50
2020-09-07 09:00:00 15.5 12 Oeste 26 Oeste 0 966.5 -- 53
2020-09-07 08:00:00 14.1 14 Oeste 24 Oeste 0 966 -- 58
2020-09-07 07:00:00 14.6 9 Oeste 28 Oeste 0 965.8 -- 55
2020-09-07 06:00:00 15 11 Oeste 32 Oeste 0 965.7 -- 53
2020-09-07 05:00:00 15.7 20 Noroeste 39 Noroeste 0 966 -- 52
2020-09-07 04:00:00 15.6 8 Oeste 18 Oeste 0 965.8 -- 66
2020-09-07 03:00:00 15.5 7 Oeste 15 Oeste 0 965.9 -- 69
2020-09-07 02:00:00 15.4 8 Oeste 27 Oeste 0 966.1 -- 71
2020-09-07 01:00:00 16.3 16 Oeste 26 Oeste 0 966.1 -- 64
2020-09-07 00:00:00 16.9 9 Oeste 20 Oeste 0 965.6 -- 66
2020-09-06 23:00:00 17 4 Oeste 33 Noroeste 1.2 965.5 -- 79
2020-09-06 22:00:00 20.8 12 Noroeste 33 Noroeste 0 964.8 -- 39
2020-09-06 21:00:00 21.8 16 Noroeste 30 Noroeste 0 963.9 -- 35
2020-09-06 20:00:00 23.6 14 Noroeste 28 Noroeste 0 963.4 -- 36
2020-09-06 19:00:00 24.4 15 Noroeste 32 Norte 0 963.3 -- 35
2020-09-06 18:00:00 25.3 18 Noroeste 29 Norte 0 963.3 -- 34
2020-09-06 17:00:00 25.1 18 Noroeste 28 Noroeste 0 963.6 -- 35
2020-09-06 16:00:00 25.2 12 Norte 29 Noroeste 0 964.1 -- 36
2020-09-06 15:00:00 25.4 13 Norte 25 Norte 0 964.5 -- 36
2020-09-06 14:00:00 24.5 10 Noroeste 20 Norte 0 965.1 -- 39
2020-09-06 13:00:00 23.5 10 Oeste 37 Noroeste 0 965.9 -- 43
2020-09-06 12:00:00 22.2 8 Noroeste 28 Noroeste 0 966.3 -- 46
2020-09-06 11:00:00 21.2 8 Oeste 19 Oeste 0 966.6 -- 49
2020-09-06 10:00:00 19.3 12 Oeste 21 Oeste 0 966.6 -- 57
2020-09-06 09:00:00 17.2 11 Sudoeste 18 Oeste 0 966.6 -- 69
2020-09-06 08:00:00 16.3 9 Sudoeste 14 Sudoeste 0 966.5 -- 75
2020-09-06 07:00:00 16.5 8 Sudoeste 15 Oeste 0 966.3 -- 76
2020-09-06 06:00:00 16.7 9 Sudoeste 15 Oeste 0 966.5 -- 76
2020-09-06 05:00:00 16.3 5 Oeste 9 Sudoeste 0 966.7 -- 77
2020-09-06 04:00:00 17.4 3 Oeste 10 Sudoeste 0 966.9 -- 69
2020-09-06 03:00:00 18.1 5 Oeste 9 Oeste 0 966.9 -- 65
2020-09-06 02:00:00 19 4 Oeste 14 Noroeste 0 966.9 -- 61
2020-09-06 01:00:00 20.4 8 Noroeste 24 Noroeste 0 966.7 -- 56
2020-09-06 00:00:00 21.4 6 Norte 12 Norte 0 966.5 -- 52
2020-09-05 23:00:00 23.1 6 Nordeste 22 Noroeste 0 966 -- 47
2020-09-05 22:00:00 25.5 13 Noroeste 22 Norte 0 965.2 -- 40
2020-09-05 21:00:00 25.8 4 Noroeste 7 Norte 0 964.3 -- 32
2020-09-05 20:00:00 29.5 8 Norte 15 Norte 0 964 -- 25
2020-09-05 19:00:00 30.6 8 Norte 18 Norte 0 964 -- 23
2020-09-05 18:00:00 30.7 8 Norte 17 Norte 0 964.3 -- 24
2020-09-05 17:00:00 31.2 6 Nordeste 18 Norte 0 964.7 -- 21
2020-09-05 16:00:00 29.9 7 Nordeste 21 Norte 0 965.5 -- 25
2020-09-05 15:00:00 29.1 8 Norte 22 Noroeste 0 966.3 -- 28
2020-09-05 14:00:00 27.7 9 Norte 20 Norte 0 966.9 -- 32
2020-09-05 13:00:00 26.5 8 Norte 17 Norte 0 967.3 -- 40
2020-09-05 12:00:00 24.7 8 Norte 15 Norte 0 967.6 -- 49
2020-09-05 11:00:00 23.4 5 Norte 10 Norte 0 967.8 -- 45
2020-09-05 10:00:00 21.3 3 Sur 7 Sur 0 967.5 -- 50
2020-09-05 09:00:00 18.9 5 Sur 12 Oeste 0 967.4 -- 59
2020-09-05 08:00:00 16.1 4 Oeste 10 Sudoeste 0 967.2 -- 70
2020-09-05 07:00:00 15.7 6 Oeste 9 Oeste 0 967 -- 73
2020-09-05 06:00:00 17.6 2 Oeste 12 Sudoeste 0 966.9 -- 64
2020-09-05 05:00:00 19.2 8 Sudoeste 14 Sudoeste 0 966.9 -- 58
2020-09-05 04:00:00 20.1 9 Sudoeste 22 Sur 0 967 -- 55
2020-09-05 03:00:00 21.6 13 Sur 24 Sur 0 967.2 -- 48
2020-09-05 02:00:00 21.8 11 Sur 24 Sur 0 967.5 -- 50
2020-09-05 01:00:00 22.4 16 Sur 28 Sur 0 967.7 -- 50
2020-09-05 00:00:00 23.2 13 Sur 32 Sur 0 967.9 -- 46
2020-09-04 23:00:00 23.7 14 Sur 28 Sur 0 968 -- 49
2020-09-04 22:00:00 25 13 Sur 31 Sudeste 0 967.8 -- 45
2020-09-04 21:00:00 26.7 14 Sudeste 29 Sur 0 967.1 -- 38
2020-09-04 20:00:00 28.8 12 Sudeste 23 Sudeste 0 966.8 -- 32
2020-09-04 19:00:00 31.1 8 Nordeste 20 Nordeste 0 967 -- 30
2020-09-04 18:00:00 31.8 12 Norte 26 Norte 0 967.2 -- 22
2020-09-04 17:00:00 31.8 12 Norte 25 Nordeste 0 967.7 -- 20
2020-09-04 16:00:00 30.8 10 Norte 21 Norte 0 968.6 -- 23
2020-09-04 15:00:00 30.2 9 Nordeste 21 Norte 0 969.6 -- 25
2020-09-04 14:00:00 29 6 Nordeste 25 Norte 0 970.2 -- 27
2020-09-04 13:00:00 28.1 5 Nordeste 18 Norte 0 970.8 -- 31
2020-09-04 12:00:00 25 7 Norte 14 Norte 0 971.1 -- 41
2020-09-04 11:00:00 24.6 3 Nordeste 8 Noroeste 0 971.1 -- 42
2020-09-04 10:00:00 21.2 2 Sudoeste 9 Sudoeste 0 970.9 -- 52
2020-09-04 09:00:00 19 5 Sudoeste 14 Sudoeste 0 970.6 -- 61
2020-09-04 08:00:00 16.8 8 Oeste 14 Sudoeste 0 970.1 -- 72
2020-09-04 07:00:00 16.9 6 Sur 10 Sudoeste 0 969.6 -- 70
2020-09-04 06:00:00 17 2 Sudoeste 9 Sudoeste 0 969.4 -- 70
2020-09-04 05:00:00 18.3 2 Norte 17 Sur 0 969.3 -- 65
2020-09-04 04:00:00 20.9 8 Sur 21 Sudoeste 0 969.1 -- 55
2020-09-04 03:00:00 21.1 13 Sur 24 Sudoeste 0 969.4 -- 56
2020-09-04 02:00:00 21.4 14 Sudoeste 24 Sudoeste 0 969.8 -- 55
2020-09-04 01:00:00 22 13 Sur 25 Sur 0 969.8 -- 53
2020-09-04 00:00:00 22.5 13 Sur 31 Sur 0 969.6 -- 52
2020-09-03 23:00:00 23.2 14 Sur 28 Sur 0 969.3 -- 50
2020-09-03 22:00:00 24.5 17 Sudeste 32 Sudeste 0 968.8 -- 48
2020-09-03 21:00:00 25.9 14 Sur 26 Sur 0 967.9 -- 45
2020-09-03 20:00:00 29.1 7 Norte 17 Norte 0 967.2 -- 15
2020-09-03 19:00:00 30 9 Norte 20 Nordeste 0 967.1 -- 14
2020-09-03 18:00:00 30.1 10 Norte 20 Norte 0 967 -- 14
2020-09-03 17:00:00 31.1 6 Este 19 Norte 0 967.3 -- 15
2020-09-03 16:00:00 29.8 6 Norte 16 Nordeste 0 967.6 -- 17
2020-09-03 15:00:00 28.5 5 Nordeste 16 Nordeste 0 968.4 -- 23
2020-09-03 14:00:00 26.5 5 Nordeste 15 Este 0 968.9 -- 26
2020-09-03 13:00:00 25.3 6 Nordeste 15 Norte 0 969.2 -- 27
2020-09-03 12:00:00 23.6 4 Nordeste 12 Este 0 969.4 -- 28
2020-09-03 11:00:00 21.9 3 Oeste 9 Este 0 969.4 -- 31
2020-09-03 10:00:00 18.4 5 Sur 13 Sudoeste 0 969 -- 41
2020-09-03 09:00:00 15.8 9 Sudoeste 17 Sudoeste 0 968.7 -- 49
2020-09-03 08:00:00 13.8 12 Sudoeste 18 Sudoeste 0 968.3 -- 53
2020-09-03 07:00:00 14.4 13 Sudoeste 18 Sudoeste 0 967.7 -- 52
2020-09-03 06:00:00 15 13 Sudoeste 18 Sudoeste 0 967.5 -- 49
2020-09-03 05:00:00 15.7 11 Sudoeste 18 Sudoeste 0 967.1 -- 43
2020-09-03 04:00:00 16.5 14 Sudoeste 21 Sudoeste 0 967 -- 39
2020-09-03 03:00:00 17.9 15 Sudoeste 22 Sudoeste 0 967 -- 33
2020-09-03 02:00:00 17.7 13 Sudoeste 19 Sudoeste 0 967 -- 34
2020-09-03 01:00:00 18.9 13 Sudoeste 18 Sudoeste 0 966.5 -- 31
2020-09-03 00:00:00 19 10 Sudoeste 14 Sudoeste 0 966 -- 31
2020-09-02 23:00:00 18.8 8 Oeste 12 Oeste 0 965.7 -- 31
2020-09-02 22:00:00 20.4 7 Oeste 10 Oeste 0 965.1 -- 28
2020-09-02 21:00:00 22.1 6 Noroeste 15 Norte 0 964.2 -- 25
2020-09-02 20:00:00 25.6 11 Norte 20 Norte 0 963.4 -- 19
2020-09-02 19:00:00 26.3 13 Norte 25 Norte 0 963 -- 19
2020-09-02 18:00:00 26.4 14 Norte 26 Noroeste 0 962.9 -- 20
2020-09-02 17:00:00 26.3 17 Norte 34 Norte 0 962.8 -- 21
2020-09-02 16:00:00 26.2 12 Norte 26 Norte 0 963 -- 23
2020-09-02 15:00:00 25.6 12 Noroeste 23 Noroeste 0 963.4 -- 23
2020-09-02 14:00:00 24.7 13 Noroeste 30 Noroeste 0 963.7 -- 25
2020-09-02 13:00:00 23.6 10 Noroeste 21 Noroeste 0 964.1 -- 29
2020-09-02 12:00:00 21.7 10 Norte 19 Oeste 0 964.5 -- 35
2020-09-02 11:00:00 20 12 Oeste 26 Oeste 0 964.5 -- 41
2020-09-02 10:00:00 18.5 14 Oeste 24 Oeste 0 964.1 -- 45
2020-09-02 09:00:00 16.7 8 Sudoeste 17 Sudoeste 0 964 -- 54
2020-09-02 08:00:00 14.6 9 Sudoeste 13 Sudoeste 0 963.7 -- 62
2020-09-02 07:00:00 14.2 9 Sudoeste 12 Sudoeste 0 963.3 -- 63
2020-09-02 06:00:00 13.1 6 Oeste 10 Oeste 0 962.8 -- 64
2020-09-02 05:00:00 15.3 6 Oeste 15 Sudoeste 0 962.6 -- 55
2020-09-02 04:00:00 15.7 4 Oeste 13 Oeste 0 962.4 -- 51
2020-09-02 03:00:00 17 7 Oeste 17 Sudoeste 0 962.1 -- 44
2020-09-02 02:00:00 18.2 9 Oeste 24 Noroeste 0 961.9 -- 39
2020-09-02 01:00:00 19.9 13 Oeste 24 Noroeste 0 961.2 -- 34
2020-09-02 00:00:00 19.8 10 Sudoeste 17 Sudoeste 0 961 -- 31
2020-09-01 23:00:00 18.5 10 Oeste 13 Oeste 0 960.7 -- 34
2020-09-01 22:00:00 18.3 4 Sudoeste 6 Oeste 0 960.4 -- 33
2020-09-01 21:00:00 20.5 2 Sudoeste 7 Nordeste 0 959.8 -- 29
2020-09-01 20:00:00 23.6 3 Nordeste 13 Norte 0 959.6 -- 24
2020-09-01 19:00:00 25.2 7 Norte 16 Norte 0 959.4 -- 21
2020-09-01 18:00:00 24.3 9 Noroeste 20 Norte 0 959.6 -- 21
2020-09-01 17:00:00 24.3 8 Norte 19 Norte 0 959.7 -- 21
2020-09-01 16:00:00 24.1 10 Noroeste 15 Norte 0 959.9 -- 22
2020-09-01 15:00:00 24.5 5 Nordeste 16 Noroeste 0 960.5 -- 22
2020-09-01 14:00:00 24.4 8 Norte 21 Norte 0 961 -- 21
2020-09-01 13:00:00 23 6 Norte 13 Noroeste 0 961.5 -- 25
2020-09-01 12:00:00 23 6 Norte 12 Norte 0 961.8 -- 24
2020-09-01 11:00:00 21.6 7 Norte 13 Norte 0 962 -- 27
2020-09-01 10:00:00 19 7 Sudoeste 16 Sudoeste 0 962.1 -- 41
2020-09-01 09:00:00 16.3 9 Sudoeste 16 Sudoeste 0 962 -- 49
2020-09-01 08:00:00 15.2 9 Sudoeste 16 Sudoeste 0 962 -- 53
2020-09-01 07:00:00 15 11 Sudoeste 16 Sudoeste 0 962 -- 50
2020-09-01 06:00:00 13.9 3 Oeste 10 Sudoeste 0 962.1 -- 46
2020-09-01 05:00:00 15.7 7 Sudoeste 12 Oeste 0 962.6 -- 42
2020-09-01 04:00:00 16.2 9 Sudoeste 17 Sudoeste 0 962.8 -- 47
2020-09-01 03:00:00 17.1 9 Oeste 14 Sudoeste 0 963 -- 47
2020-09-01 02:00:00 18.2 6 Sur 13 Sudoeste 0 963.4 -- 47
2020-09-01 01:00:00 19.5 5 Sudoeste 14 Oeste 0 963.7 -- 40
2020-09-01 00:00:00 20.7 4 Sudoeste 13 Sudoeste 0 963.4 -- 28
2020-08-31 23:00:00 20.4 6 Sudoeste 8 Sudoeste 0 963.3 -- 28
2020-08-31 22:00:00 18.9 2 Sudoeste 6 Oeste 0 963.3 -- 31
2020-08-31 21:00:00 20.8 0 Calma 13 Norte 0 963 -- 28
2020-08-31 20:00:00 24.2 7 Norte 19 Norte 0 962.6 -- 21
2020-08-31 19:00:00 25.3 10 Norte 18 Norte 0 962.8 -- 19
2020-08-31 18:00:00 25.8 7 Nordeste 17 Norte 0 962.9 -- 20
2020-08-31 17:00:00 25.8 9 Nordeste 23 Norte 0 963.4 -- 20
2020-08-31 16:00:00 25.6 5 Nordeste 21 Noroeste 0 964 -- 21
2020-08-31 15:00:00 23.8 9 Norte 24 Norte 0 965 -- 23
2020-08-31 14:00:00 22.2 7 Norte 19 Norte 0 965.6 -- 25
2020-08-31 13:00:00 21.3 10 Noroeste 18 Noroeste 0 966.4 -- 28
2020-08-31 12:00:00 19.8 8 Noroeste 23 Noroeste 0 967.1 -- 32
2020-08-31 11:00:00 18.3 10 Noroeste 19 Oeste 0 967.1 -- 36
2020-08-31 10:00:00 16.4 10 Oeste 18 Oeste 0 966.9 -- 43
2020-08-31 09:00:00 13.8 9 Sudoeste 14 Sudoeste 0 966.7 -- 52
2020-08-31 08:00:00 11.9 9 Sudoeste 14 Sudoeste 0 966.4 -- 58
2020-08-31 07:00:00 12.2 9 Sudoeste 14 Sudoeste 0 966 -- 58
2020-08-31 06:00:00 11.6 5 Sudoeste 10 Sudoeste 0 965.8 -- 61
2020-08-31 05:00:00 12 8 Sudoeste 13 Sudoeste 0 965.7 -- 60
2020-08-31 04:00:00 12.7 7 Sudoeste 13 Sudoeste 0 966 -- 58
2020-08-31 03:00:00 12.7 7 Sudoeste 12 Oeste 0 966.2 -- 57
2020-08-31 02:00:00 13.3 4 Oeste 19 Oeste 0 966.2 -- 54
2020-08-31 01:00:00 15.2 10 Oeste 26 Oeste 0 965.6 -- 47
2020-08-31 00:00:00 15.6 6 Oeste 22 Oeste 0 965.2 -- 44
2020-08-30 23:00:00 16.7 12 Oeste 32 Noroeste 0 964.7 -- 43
2020-08-30 22:00:00 17.5 17 Noroeste 33 Noroeste 0 963.8 -- 40
2020-08-30 21:00:00 18.3 18 Noroeste 35 Noroeste 0 962.8 -- 38
2020-08-30 20:00:00 19.8 24 Noroeste 39 Noroeste 0 961.8 -- 32
2020-08-30 19:00:00 21.2 22 Noroeste 36 Noroeste 0 961.3 -- 31
2020-08-30 18:00:00 21.8 22 Noroeste 38 Noroeste 0 961.1 -- 29
2020-08-30 17:00:00 22.3 19 Noroeste 37 Norte 0 961 -- 28
2020-08-30 16:00:00 22.4 19 Noroeste 36 Noroeste 0 961.2 -- 26
2020-08-30 15:00:00 21.6 20 Noroeste 34 Noroeste 0 961.4 -- 29
2020-08-30 14:00:00 20.3 19 Noroeste 39 Noroeste 0 961.8 -- 32
2020-08-30 13:00:00 20 22 Noroeste 37 Noroeste 0 961.8 -- 31
2020-08-30 12:00:00 19 18 Noroeste 38 Noroeste 0 962 -- 36
2020-08-30 11:00:00 17.2 22 Noroeste 39 Noroeste 0 962 -- 40
2020-08-30 10:00:00 16 21 Noroeste 38 Noroeste 0 961.6 -- 43
2020-08-30 09:00:00 14.6 21 Noroeste 36 Noroeste 0 960.6 -- 48
2020-08-30 08:00:00 13.4 14 Oeste 32 Noroeste 0 960.2 -- 53
2020-08-30 07:00:00 13.2 10 Oeste 22 Oeste 0 960 -- 50
2020-08-30 06:00:00 13.2 7 Oeste 24 Oeste 0 959.8 -- 51
2020-08-30 05:00:00 13.9 12 Oeste 37 Oeste 0 959.3 -- 48
2020-08-30 04:00:00 14.2 19 Oeste 45 Oeste 0 958.6 -- 50
2020-08-30 03:00:00 14.3 26 Noroeste 41 Oeste 0 958.3 -- 54
2020-08-30 02:00:00 14.8 20 Oeste 50 Noroeste 0 958.1 -- 54
2020-08-30 01:00:00 15.6 24 Noroeste 43 Noroeste 0 958 -- 55
2020-08-30 00:00:00 16.2 23 Noroeste 45 Oeste 0 957.2 -- 52
2020-08-29 23:00:00 17 20 Oeste 45 Noroeste 0 956.6 -- 50
2020-08-29 22:00:00 17.7 23 Noroeste 51 Noroeste 0 955.8 -- 48
2020-08-29 21:00:00 18.5 27 Noroeste 50 Noroeste 0 954.5 -- 39
2020-08-29 20:00:00 21.1 30 Noroeste 48 Noroeste 0 953.5 -- 31
2020-08-29 19:00:00 22.9 26 Noroeste 44 Norte 0 952.8 -- 27
2020-08-29 18:00:00 23.4 24 Noroeste 43 Noroeste 0 952.5 -- 25
2020-08-29 17:00:00 23.9 20 Noroeste 37 Noroeste 0 952.3 -- 25
2020-08-29 16:00:00 22.8 22 Noroeste 40 Noroeste 0 953.1 -- 26
2020-08-29 15:00:00 22.7 17 Noroeste 36 Noroeste 0 953.3 -- 28
2020-08-29 14:00:00 21.6 19 Noroeste 38 Noroeste 0 953.6 -- 30
2020-08-29 13:00:00 19.7 18 Oeste 34 Noroeste 0 954.2 -- 37
2020-08-29 12:00:00 18.4 19 Noroeste 36 Oeste 0 954.6 -- 42
2020-08-29 11:00:00 17.3 19 Noroeste 37 Noroeste 0 954.8 -- 46
2020-08-29 10:00:00 16.7 19 Noroeste 35 Noroeste 0 954.9 -- 49
2020-08-29 09:00:00 16.6 15 Noroeste 27 Noroeste 0 954.5 -- 48
2020-08-29 08:00:00 16.7 11 Oeste 28 Oeste 0 954.3 -- 44
2020-08-29 07:00:00 16.7 15 Oeste 32 Oeste 0 954.1 -- 47
2020-08-29 06:00:00 16.8 15 Oeste 32 Oeste 0 954.2 -- 48
2020-08-29 05:00:00 16.9 13 Oeste 32 Oeste 0 954.5 -- 51
2020-08-29 04:00:00 17 15 Noroeste 28 Oeste 0 954.8 -- 53
2020-08-29 03:00:00 17.2 15 Oeste 30 Oeste 0 955.4 -- 54
2020-08-29 02:00:00 17.7 17 Oeste 29 Oeste 0 955.3 -- 53
2020-08-29 01:00:00 17.9 14 Noroeste 33 Oeste 0 955.4 -- 55
2020-08-29 00:00:00 18.7 17 Noroeste 31 Oeste 0 954.8 -- 55
2020-08-28 23:00:00 19.5 13 Noroeste 31 Oeste 0 955.1 -- 55
2020-08-28 22:00:00 20.3 8 Oeste 27 Noroeste 0 954.5 -- 55
2020-08-28 21:00:00 21.9 17 Noroeste 42 Noroeste 0 953.1 -- 51
2020-08-28 20:00:00 24.3 16 Noroeste 27 Noroeste 0 953.1 -- 51
2020-08-28 19:00:00 24.8 6 Oeste 21 Sur 0.6 953 -- 75
2020-08-28 18:00:00 22.7 12 Sur 24 Sur 0.6 953.9 -- 77
2020-08-28 17:00:00 28.5 11 Norte 31 Norte 0 953 -- 40
2020-08-28 16:00:00 30.2 15 Norte 27 Nordeste 0 953.1 -- 36
2020-08-28 15:00:00 30.1 13 Norte 24 Noroeste 0 954.1 -- 34
2020-08-28 14:00:00 30 5 Norte 21 Norte 0 954.9 -- 36
2020-08-28 13:00:00 27.5 6 Norte 19 Norte 0 955.9 -- 42
2020-08-28 12:00:00 27.2 6 Noroeste 14 Norte 0 956.5 -- 44
2020-08-28 11:00:00 25.3 11 Noroeste 19 Noroeste 0 957 -- 50
2020-08-28 10:00:00 23.5 11 Noroeste 19 Noroeste 0 957.3 -- 57
2020-08-28 09:00:00 22.3 0 Calma 8 Noroeste 0 957.7 -- 61
2020-08-28 08:00:00 20.2 4 Sudoeste 8 Oeste 0 957.5 -- 71
2020-08-28 07:00:00 19.6 6 Oeste 9 Oeste 0 957.6 -- 75
2020-08-28 06:00:00 20.7 0 Calma 5 Noroeste 0 957.9 -- 73
2020-08-28 05:00:00 21.2 3 Este 7 Este 0 958.4 -- 70
2020-08-28 04:00:00 21.9 2 Este 10 Noroeste 0 959 -- 67
2020-08-28 03:00:00 23.6 9 Noroeste 22 Noroeste 0 959.5 -- 59
2020-08-28 02:00:00 26.2 13 Oeste 22 Oeste 0 959.4 -- 46
2020-08-28 01:00:00 27.3 5 Oeste 19 Sudeste 0 959.4 -- 54
2020-08-28 00:00:00 28.3 5 Sur 26 Sur 0 959.6 -- 52
2020-08-27 23:00:00 29 13 Sur 27 Sur 0 960 -- 51
2020-08-27 22:00:00 29.9 10 Sur 18 Sudeste 0 960 -- 46
2020-08-27 21:00:00 30.1 0 Calma 7 Norte 0 959.9 -- 30
2020-08-27 20:00:00 33.5 4 Nordeste 13 Este 0 959.8 -- 24
2020-08-27 19:00:00 34 5 Nordeste 17 Nordeste 0 960.6 -- 23
2020-08-27 18:00:00 35 5 Norte 18 Noroeste 0 961.1 -- 22
2020-08-27 17:00:00 34.3 7 Norte 17 Norte 0 961.7 -- 23
2020-08-27 16:00:00 33.7 6 Nordeste 19 Nordeste 0 962.5 -- 25
2020-08-27 15:00:00 32.7 11 Nordeste 24 Norte 0 963.3 -- 26
2020-08-27 14:00:00 31.8 6 Nordeste 18 Norte 0 963.8 -- 28
2020-08-27 13:00:00 30.4 10 Norte 17 Norte 0 964.5 -- 31
2020-08-27 12:00:00 28.9 6 Oeste 15 Norte 0 965.2 -- 33
2020-08-27 11:00:00 26.8 9 Norte 17 Norte 0 965.4 -- 40
2020-08-27 10:00:00 24.8 3 Oeste 7 Norte 0 965.1 -- 68
2020-08-27 09:00:00 22.4 0 Calma 7 Noroeste 0 965.2 -- 81
2020-08-27 08:00:00 20.8 3 Oeste 6 Oeste 0 964.9 -- 60
2020-08-27 07:00:00 20.9 4 Sudoeste 8 Oeste 0 964.7 -- 59
2020-08-27 06:00:00 21.3 0 Calma 6 Sudoeste 0 964.7 -- 56
2020-08-27 05:00:00 23.3 2 Noroeste 10 Norte 0 964.9 -- 49
2020-08-27 04:00:00 24.1 5 Sudoeste 15 Sudoeste 0 965.1 -- 46
2020-08-27 03:00:00 25.1 7 Sudoeste 15 Sudoeste 0 965.2 -- 45
2020-08-27 02:00:00 26.7 9 Sudoeste 14 Sudoeste 0 965.3 -- 40
2020-08-27 01:00:00 26.8 6 Sudoeste 10 Sudoeste 0 965.3 -- 42
2020-08-27 00:00:00 28.5 8 Sudoeste 14 Sur 0 965.2 -- 45
2020-08-26 23:00:00 29.3 9 Sudoeste 14 Sudoeste 0 964.9 -- 50
2020-08-26 22:00:00 30 4 Sur 8 Sudoeste 0 964.2 -- 31
2020-08-26 21:00:00 31.5 3 Noroeste 12 Norte 0 963.4 -- 30
2020-08-26 20:00:00 33.7 9 Norte 16 Norte 0 963.1 -- 26
2020-08-26 19:00:00 34.5 9 Norte 18 Norte 0 963.3 -- 25
2020-08-26 18:00:00 34.4 8 Norte 19 Norte 0 963.7 -- 26
2020-08-26 17:00:00 34.1 8 Norte 20 Norte 0 964.1 -- 25
2020-08-26 16:00:00 33.1 10 Norte 22 Noroeste 0 964.7 -- 26
2020-08-26 15:00:00 32 9 Norte 17 Norte 0 965.1 -- 28
2020-08-26 14:00:00 30.7 6 Norte 18 Norte 0 965.6 -- 30
2020-08-26 13:00:00 29.7 7 Norte 18 Norte 0 966.2 -- 31
2020-08-26 12:00:00 28.1 6 Norte 15 Norte 0 966.6 -- 33
2020-08-26 11:00:00 26.8 10 Norte 18 Norte 0 966.2 -- 36
2020-08-26 10:00:00 25.6 2 Nordeste 9 Sur 0 965.8 -- 38
2020-08-26 09:00:00 22.6 7 Sur 11 Sudoeste 0 965.5 -- 47
2020-08-26 08:00:00 19.5 4 Oeste 9 Sur 0 965.4 -- 57
2020-08-26 07:00:00 20.5 5 Sur 9 Sur 0 965.2 -- 56
2020-08-26 06:00:00 20.8 2 Sudeste 4 Sur 0 965 -- 56
2020-08-26 05:00:00 21.7 3 Norte 10 Norte 0 964.9 -- 53
2020-08-26 04:00:00 23.7 5 Oeste 20 Noroeste 0 964.5 -- 52
2020-08-26 03:00:00 27.1 9 Oeste 23 Sur 0 963.9 -- 34
2020-08-26 02:00:00 28.9 14 Sur 32 Sur 0 963.1 -- 28
2020-08-26 01:00:00 29 17 Sur 37 Sur 0 963 -- 32
2020-08-26 00:00:00 29.4 21 Sur 39 Sudeste 0 962.8 -- 33